sensor_id;sensor_type;location;lat;lon;timestamp;P1;durP1;ratioP1;P2;durP2;ratioP2
3831;SDS011;12460;42.662;23.288;2023-09-19T00:10:18;8.00;;;7.30;;
3831;SDS011;12460;42.662;23.288;2023-09-19T00:25:20;7.10;;;6.50;;
3831;SDS011;12460;42.662;23.288;2023-09-19T00:40:22;7.77;;;7.13;;
3831;SDS011;12460;42.662;23.288;2023-09-19T00:55:25;8.40;;;7.53;;
3831;SDS011;12460;42.662;23.288;2023-09-19T01:10:31;8.13;;;7.40;;
3831;SDS011;12460;42.662;23.288;2023-09-19T01:40:57;8.60;;;7.80;;
3831;SDS011;12460;42.662;23.288;2023-09-19T01:56:07;7.83;;;7.13;;
3831;SDS011;12460;42.662;23.288;2023-09-19T02:11:14;7.70;;;7.00;;
3831;SDS011;12460;42.662;23.288;2023-09-19T02:26:16;8.40;;;7.60;;
3831;SDS011;12460;42.662;23.288;2023-09-19T02:41:17;7.50;;;6.90;;
3831;SDS011;12460;42.662;23.288;2023-09-19T02:56:20;8.17;;;7.40;;
3831;SDS011;12460;42.662;23.288;2023-09-19T03:11:22;8.90;;;7.60;;
3831;SDS011;12460;42.662;23.288;2023-09-19T03:26:27;8.43;;;7.70;;
3831;SDS011;12460;42.662;23.288;2023-09-19T03:41:29;9.03;;;8.07;;
3831;SDS011;12460;42.662;23.288;2023-09-19T03:56:32;8.40;;;7.70;;
3831;SDS011;12460;42.662;23.288;2023-09-19T04:11:34;9.10;;;8.20;;
3831;SDS011;12460;42.662;23.288;2023-09-19T04:26:36;9.07;;;8.17;;
3831;SDS011;12460;42.662;23.288;2023-09-19T04:41:38;12.00;;;10.37;;
3831;SDS011;12460;42.662;23.288;2023-09-19T04:56:43;9.83;;;8.40;;
3831;SDS011;12460;42.662;23.288;2023-09-19T05:11:44;9.03;;;8.23;;
3831;SDS011;12460;42.662;23.288;2023-09-19T05:26:46;8.73;;;7.83;;
3831;SDS011;12460;42.662;23.288;2023-09-19T05:41:48;9.47;;;8.60;;
3831;SDS011;12460;42.662;23.288;2023-09-19T05:56:50;7.60;;;6.93;;
3831;SDS011;12460;42.662;23.288;2023-09-19T06:11:54;9.10;;;8.20;;
3831;SDS011;12460;42.662;23.288;2023-09-19T06:26:57;8.67;;;7.50;;
3831;SDS011;12460;42.662;23.288;2023-09-19T06:41:59;7.70;;;7.00;;
3831;SDS011;12460;42.662;23.288;2023-09-19T06:57:03;9.63;;;8.63;;
3831;SDS011;12460;42.662;23.288;2023-09-19T07:12:05;8.87;;;7.50;;
3831;SDS011;12460;42.662;23.288;2023-09-19T07:27:07;10.00;;;7.00;;
3831;SDS011;12460;42.662;23.288;2023-09-19T07:42:10;8.17;;;6.60;;
3831;SDS011;12460;42.662;23.288;2023-09-19T07:57:13;8.77;;;7.87;;
3831;SDS011;12460;42.662;23.288;2023-09-19T08:12:16;7.80;;;7.10;;
3831;SDS011;12460;42.662;23.288;2023-09-19T08:27:18;7.80;;;7.10;;
3831;SDS011;12460;42.662;23.288;2023-09-19T08:42:20;14.13;;;12.70;;
3831;SDS011;12460;42.662;23.288;2023-09-19T08:57:22;8.67;;;7.07;;
3831;SDS011;12460;42.662;23.288;2023-09-19T09:12:25;8.47;;;7.57;;
3831;SDS011;12460;42.662;23.288;2023-09-19T09:27:27;8.80;;;7.40;;
3831;SDS011;12460;42.662;23.288;2023-09-19T09:42:34;11.40;;;7.73;;
3831;SDS011;12460;42.662;23.288;2023-09-19T09:57:37;11.47;;;10.20;;
3831;SDS011;12460;42.662;23.288;2023-09-19T10:12:43;8.43;;;7.73;;
3831;SDS011;12460;42.662;23.288;2023-09-19T10:27:50;7.97;;;7.37;;
3831;SDS011;12460;42.662;23.288;2023-09-19T10:42:54;8.00;;;7.30;;
3831;SDS011;12460;42.662;23.288;2023-09-19T10:58:03;8.53;;;7.70;;
3831;SDS011;12460;42.662;23.288;2023-09-19T11:13:31;8.47;;;7.67;;
3831;SDS011;12460;42.662;23.288;2023-09-19T11:28:36;8.63;;;7.80;;
3831;SDS011;12460;42.662;23.288;2023-09-19T11:43:38;9.00;;;7.80;;
3831;SDS011;12460;42.662;23.288;2023-09-19T11:58:45;8.03;;;7.23;;
3831;SDS011;12460;42.662;23.288;2023-09-19T12:13:50;8.13;;;7.53;;
3831;SDS011;12460;42.662;23.288;2023-09-19T12:28:55;8.30;;;7.53;;
3831;SDS011;12460;42.662;23.288;2023-09-19T12:43:57;8.40;;;7.70;;
3831;SDS011;12460;42.662;23.288;2023-09-19T12:59:01;8.87;;;7.97;;
3831;SDS011;12460;42.662;23.288;2023-09-19T13:29:26;8.47;;;7.77;;
3831;SDS011;12460;42.662;23.288;2023-09-19T13:44:28;7.30;;;6.43;;
3831;SDS011;12460;42.662;23.288;2023-09-19T13:59:31;7.10;;;6.50;;
3831;SDS011;12460;42.662;23.288;2023-09-19T14:14:33;7.73;;;7.00;;
3831;SDS011;12460;42.662;23.288;2023-09-19T14:29:36;9.10;;;8.40;;
3831;SDS011;12460;42.662;23.288;2023-09-19T14:44:38;10.90;;;9.73;;
3831;SDS011;12460;42.662;23.288;2023-09-19T14:59:40;21.50;;;19.23;;
3831;SDS011;12460;42.662;23.288;2023-09-19T15:14:42;23.33;;;20.90;;
3831;SDS011;12460;42.662;23.288;2023-09-19T15:29:44;11.57;;;10.47;;
3831;SDS011;12460;42.662;23.288;2023-09-19T15:44:45;8.50;;;7.70;;
3831;SDS011;12460;42.662;23.288;2023-09-19T15:59:50;8.13;;;7.33;;
3831;SDS011;12460;42.662;23.288;2023-09-19T16:14:52;11.47;;;8.67;;
3831;SDS011;12460;42.662;23.288;2023-09-19T16:29:53;9.17;;;8.30;;
3831;SDS011;12460;42.662;23.288;2023-09-19T16:44:55;10.40;;;9.43;;
3831;SDS011;12460;42.662;23.288;2023-09-19T16:59:57;9.93;;;8.90;;
3831;SDS011;12460;42.662;23.288;2023-09-19T17:14:59;12.00;;;9.83;;
3831;SDS011;12460;42.662;23.288;2023-09-19T17:30:01;13.37;;;12.07;;
3831;SDS011;12460;42.662;23.288;2023-09-19T17:45:04;13.47;;;12.10;;
3831;SDS011;12460;42.662;23.288;2023-09-19T18:00:06;16.40;;;11.83;;
3831;SDS011;12460;42.662;23.288;2023-09-19T18:15:12;12.67;;;10.47;;
3831;SDS011;12460;42.662;23.288;2023-09-19T18:30:14;11.50;;;9.87;;
3831;SDS011;12460;42.662;23.288;2023-09-19T18:45:17;15.43;;;13.40;;
3831;SDS011;12460;42.662;23.288;2023-09-19T19:00:31;14.13;;;12.77;;
3831;SDS011;12460;42.662;23.288;2023-09-19T19:15:34;15.30;;;13.70;;
3831;SDS011;12460;42.662;23.288;2023-09-19T19:30:42;13.80;;;12.40;;
3831;SDS011;12460;42.662;23.288;2023-09-19T19:45:57;13.00;;;11.70;;
3831;SDS011;12460;42.662;23.288;2023-09-19T20:01:01;12.30;;;11.10;;
3831;SDS011;12460;42.662;23.288;2023-09-19T20:16:03;12.20;;;10.90;;
3831;SDS011;12460;42.662;23.288;2023-09-19T20:31:10;12.20;;;9.50;;
3831;SDS011;12460;42.662;23.288;2023-09-19T20:46:13;8.97;;;8.13;;
3831;SDS011;12460;42.662;23.288;2023-09-19T21:01:15;8.30;;;6.07;;
3831;SDS011;12460;42.662;23.288;2023-09-19T21:16:19;6.83;;;4.60;;
3831;SDS011;12460;42.662;23.288;2023-09-19T21:31:22;5.03;;;4.20;;
3831;SDS011;12460;42.662;23.288;2023-09-19T21:46:25;6.20;;;4.30;;
3831;SDS011;12460;42.662;23.288;2023-09-19T22:01:28;4.30;;;3.60;;
3831;SDS011;12460;42.662;23.288;2023-09-19T22:16:31;3.80;;;3.30;;
3831;SDS011;12460;42.662;23.288;2023-09-19T22:31:33;4.90;;;4.03;;
3831;SDS011;12460;42.662;23.288;2023-09-19T22:46:44;5.63;;;3.40;;
3831;SDS011;12460;42.662;23.288;2023-09-19T23:01:47;4.53;;;3.33;;
3831;SDS011;12460;42.662;23.288;2023-09-19T23:16:52;3.43;;;3.13;;
3831;SDS011;12460;42.662;23.288;2023-09-19T23:31:58;4.03;;;3.73;;
3831;SDS011;12460;42.662;23.288;2023-09-19T23:47:00;3.97;;;3.67;;
